sensor_id;sensor_type;location;lat;lon;timestamp;pressure;altitude;pressure_sealevel;temperature;humidity
31483;BME280;18103;52.246;8.052;2023-03-03T00:00:40;101202.13;;;2.23;82.16
31483;BME280;18103;52.246;8.052;2023-03-03T00:03:07;101208.06;;;2.29;82.01
31483;BME280;18103;52.246;8.052;2023-03-03T00:05:34;101206.56;;;2.21;82.38
31483;BME280;18103;52.246;8.052;2023-03-03T00:08:01;101203.00;;;2.24;82.46
31483;BME280;18103;52.246;8.052;2023-03-03T00:10:27;101201.09;;;2.29;81.79
31483;BME280;18103;52.246;8.052;2023-03-03T00:12:52;101201.34;;;2.21;82.15
31483;BME280;18103;52.246;8.052;2023-03-03T00:15:20;101217.81;;;2.22;82.32
31483;BME280;18103;52.246;8.052;2023-03-03T00:17:46;101211.66;;;2.25;82.02
31483;BME280;18103;52.246;8.052;2023-03-03T00:20:36;101218.84;;;2.16;82.11
31483;BME280;18103;52.246;8.052;2023-03-03T00:23:39;101213.38;;;2.26;82.00
31483;BME280;18103;52.246;8.052;2023-03-03T00:26:28;101223.66;;;2.30;81.50
31483;BME280;18103;52.246;8.052;2023-03-03T00:28:55;101218.63;;;2.24;82.09
31483;BME280;18103;52.246;8.052;2023-03-03T00:31:35;101217.66;;;2.28;81.87
31483;BME280;18103;52.246;8.052;2023-03-03T00:34:24;101215.03;;;2.28;81.65
31483;BME280;18103;52.246;8.052;2023-03-03T00:36:52;101207.88;;;2.35;81.50
31483;BME280;18103;52.246;8.052;2023-03-03T00:41:50;101213.19;;;2.32;81.87
31483;BME280;18103;52.246;8.052;2023-03-03T00:47:34;101216.66;;;2.32;81.53
31483;BME280;18103;52.246;8.052;2023-03-03T00:52:34;101214.28;;;2.25;81.76
31483;BME280;18103;52.246;8.052;2023-03-03T00:54:59;101202.19;;;2.22;81.33
31483;BME280;18103;52.246;8.052;2023-03-03T00:57:25;101213.59;;;2.18;81.90
31483;BME280;18103;52.246;8.052;2023-03-03T00:59:50;101211.84;;;2.18;81.72
31483;BME280;18103;52.246;8.052;2023-03-03T01:02:15;101217.06;;;2.18;82.25
31483;BME280;18103;52.246;8.052;2023-03-03T01:04:43;101205.72;;;2.19;81.84
31483;BME280;18103;52.246;8.052;2023-03-03T01:07:09;101215.25;;;2.20;81.78
31483;BME280;18103;52.246;8.052;2023-03-03T01:09:34;101215.16;;;2.23;82.05
31483;BME280;18103;52.246;8.052;2023-03-03T01:11:59;101217.81;;;2.22;82.21
31483;BME280;18103;52.246;8.052;2023-03-03T01:14:25;101208.06;;;2.29;81.77
31483;BME280;18103;52.246;8.052;2023-03-03T01:16:50;101219.34;;;2.29;81.94
31483;BME280;18103;52.246;8.052;2023-03-03T01:19:16;101213.22;;;2.30;81.76
31483;BME280;18103;52.246;8.052;2023-03-03T01:21:41;101203.13;;;2.19;82.25
31483;BME280;18103;52.246;8.052;2023-03-03T01:24:07;101197.59;;;2.30;82.26
31483;BME280;18103;52.246;8.052;2023-03-03T01:26:32;101206.56;;;2.21;82.22
31483;BME280;18103;52.246;8.052;2023-03-03T01:28:57;101216.09;;;2.21;82.59
31483;BME280;18103;52.246;8.052;2023-03-03T01:31:23;101219.53;;;2.23;82.47
31483;BME280;18103;52.246;8.052;2023-03-03T01:33:48;101215.41;;;2.16;82.25
31483;BME280;18103;52.246;8.052;2023-03-03T01:36:14;101215.22;;;2.22;82.20
31483;BME280;18103;52.246;8.052;2023-03-03T01:38:40;101210.94;;;2.19;82.29
31483;BME280;18103;52.246;8.052;2023-03-03T01:41:05;101207.59;;;2.16;82.07
31483;BME280;18103;52.246;8.052;2023-03-03T01:43:32;101206.66;;;2.18;81.48
31483;BME280;18103;52.246;8.052;2023-03-03T01:48:52;101211.31;;;2.07;81.93
31483;BME280;18103;52.246;8.052;2023-03-03T01:51:27;101211.47;;;2.01;82.18
31483;BME280;18103;52.246;8.052;2023-03-03T01:53:56;101208.78;;;2.04;81.86
31483;BME280;18103;52.246;8.052;2023-03-03T01:56:23;101207.13;;;2.01;81.70
31483;BME280;18103;52.246;8.052;2023-03-03T02:01:30;101206.13;;;2.07;82.40
31483;BME280;18103;52.246;8.052;2023-03-03T02:03:56;101205.59;;;1.94;82.16
31483;BME280;18103;52.246;8.052;2023-03-03T02:06:29;101193.84;;;2.11;82.58
31483;BME280;18103;52.246;8.052;2023-03-03T02:09:09;101205.72;;;1.90;82.60
31483;BME280;18103;52.246;8.052;2023-03-03T02:11:37;101204.59;;;1.98;82.61
31483;BME280;18103;52.246;8.052;2023-03-03T02:14:04;101208.09;;;1.99;82.89
31483;BME280;18103;52.246;8.052;2023-03-03T02:16:30;101199.25;;;2.04;82.22
31483;BME280;18103;52.246;8.052;2023-03-03T02:18:55;101212.56;;;1.94;83.08
31483;BME280;18103;52.246;8.052;2023-03-03T02:21:22;101208.16;;;1.96;83.19
31483;BME280;18103;52.246;8.052;2023-03-03T02:23:59;101215.41;;;1.84;83.49
31483;BME280;18103;52.246;8.052;2023-03-03T02:26:29;101213.00;;;1.78;83.20
31483;BME280;18103;52.246;8.052;2023-03-03T02:28:56;101209.31;;;1.85;83.38
31483;BME280;18103;52.246;8.052;2023-03-03T02:31:24;101207.66;;;1.83;83.21
31483;BME280;18103;52.246;8.052;2023-03-03T02:33:51;101207.66;;;1.83;82.56
31483;BME280;18103;52.246;8.052;2023-03-03T02:36:26;101212.25;;;1.73;83.42
31483;BME280;18103;52.246;8.052;2023-03-03T02:38:58;101216.25;;;1.86;83.13
31483;BME280;18103;52.246;8.052;2023-03-03T02:44:25;101209.19;;;1.90;82.95
31483;BME280;18103;52.246;8.052;2023-03-03T02:46:53;101207.84;;;1.77;83.63
31483;BME280;18103;52.246;8.052;2023-03-03T02:49:21;101208.97;;;1.66;83.74
31483;BME280;18103;52.246;8.052;2023-03-03T02:51:47;101214.03;;;1.73;83.22
31483;BME280;18103;52.246;8.052;2023-03-03T02:54:14;101204.88;;;1.58;83.57
31483;BME280;18103;52.246;8.052;2023-03-03T02:56:41;101210.16;;;1.54;83.65
31483;BME280;18103;52.246;8.052;2023-03-03T02:59:06;101210.25;;;1.51;83.29
31483;BME280;18103;52.246;8.052;2023-03-03T03:01:33;101209.28;;;1.56;83.00
31483;BME280;18103;52.246;8.052;2023-03-03T03:04:22;101209.09;;;1.62;82.95
31483;BME280;18103;52.246;8.052;2023-03-03T03:06:48;101203.81;;;1.65;83.08
31483;BME280;18103;52.246;8.052;2023-03-03T03:09:14;101211.56;;;1.68;82.09
31483;BME280;18103;52.246;8.052;2023-03-03T03:11:40;101219.31;;;1.36;84.03
31483;BME280;18103;52.246;8.052;2023-03-03T03:14:08;101207.09;;;1.40;83.44
31483;BME280;18103;52.246;8.052;2023-03-03T03:16:34;101205.91;;;1.52;83.01
31483;BME280;18103;52.246;8.052;2023-03-03T03:19:00;101204.91;;;1.56;82.86
31483;BME280;18103;52.246;8.052;2023-03-03T03:21:26;101205.75;;;1.57;82.76
31483;BME280;18103;52.246;8.052;2023-03-03T03:23:52;101207.75;;;1.48;82.91
31483;BME280;18103;52.246;8.052;2023-03-03T03:26:17;101217.22;;;1.49;83.10
31483;BME280;18103;52.246;8.052;2023-03-03T03:28:45;101221.41;;;1.55;83.27
31483;BME280;18103;52.246;8.052;2023-03-03T03:31:11;101205.47;;;1.36;83.16
31483;BME280;18103;52.246;8.052;2023-03-03T03:33:37;101212.97;;;1.47;83.37
31483;BME280;18103;52.246;8.052;2023-03-03T03:36:02;101220.91;;;1.42;83.47
31483;BME280;18103;52.246;8.052;2023-03-03T03:38:29;101219.13;;;1.43;82.95
31483;BME280;18103;52.246;8.052;2023-03-03T03:40:55;101221.72;;;1.44;83.32
31483;BME280;18103;52.246;8.052;2023-03-03T03:43:21;101218.19;;;1.45;83.28
31483;BME280;18103;52.246;8.052;2023-03-03T03:45:47;101222.75;;;1.39;83.24
31483;BME280;18103;52.246;8.052;2023-03-03T03:48:12;101211.47;;;1.38;83.94
31483;BME280;18103;52.246;8.052;2023-03-03T03:50:38;101219.91;;;1.46;83.31
31483;BME280;18103;52.246;8.052;2023-03-03T03:53:04;101219.25;;;1.38;83.48
31483;BME280;18103;52.246;8.052;2023-03-03T03:55:30;101224.09;;;1.52;83.60
31483;BME280;18103;52.246;8.052;2023-03-03T03:57:56;101219.06;;;1.46;83.14
31483;BME280;18103;52.246;8.052;2023-03-03T04:00:22;101221.94;;;1.35;83.79
31483;BME280;18103;52.246;8.052;2023-03-03T04:02:48;101219.44;;;1.32;83.99
31483;BME280;18103;52.246;8.052;2023-03-03T04:05:14;101214.94;;;1.37;83.58
31483;BME280;18103;52.246;8.052;2023-03-03T04:07:39;101220.09;;;1.40;83.56
31483;BME280;18103;52.246;8.052;2023-03-03T04:10:05;101212.03;;;1.49;83.27
31483;BME280;18103;52.246;8.052;2023-03-03T04:12:30;101206.78;;;1.51;83.38
31483;BME280;18103;52.246;8.052;2023-03-03T04:15:04;101207.59;;;1.53;83.38
31483;BME280;18103;52.246;8.052;2023-03-03T04:17:30;101214.09;;;1.36;83.68
31483;BME280;18103;52.246;8.052;2023-03-03T04:19:55;101207.16;;;1.37;83.43
31483;BME280;18103;52.246;8.052;2023-03-03T04:22:21;101203.69;;;1.36;84.30
31483;BME280;18103;52.246;8.052;2023-03-03T04:24:46;101198.28;;;1.46;83.38
31483;BME280;18103;52.246;8.052;2023-03-03T04:27:13;101206.72;;;1.52;83.20
31483;BME280;18103;52.246;8.052;2023-03-03T04:29:39;101204.50;;;1.40;83.38
31483;BME280;18103;52.246;8.052;2023-03-03T04:32:05;101202.69;;;1.42;82.93
31483;BME280;18103;52.246;8.052;2023-03-03T04:34:30;101201.06;;;1.38;83.12
31483;BME280;18103;52.246;8.052;2023-03-03T04:36:56;101212.34;;;1.39;83.61
31483;BME280;18103;52.246;8.052;2023-03-03T04:39:21;101212.94;;;1.48;83.44
31483;BME280;18103;52.246;8.052;2023-03-03T04:41:47;101221.72;;;1.43;82.89
31483;BME280;18103;52.246;8.052;2023-03-03T04:44:12;101221.03;;;1.38;83.14
31483;BME280;18103;52.246;8.052;2023-03-03T04:46:37;101219.13;;;1.43;83.23
31483;BME280;18103;52.246;8.052;2023-03-03T04:49:03;101224.94;;;1.54;82.92
31483;BME280;18103;52.246;8.052;2023-03-03T04:51:28;101231.78;;;1.57;83.06
31483;BME280;18103;52.246;8.052;2023-03-03T04:53:54;101224.19;;;1.49;83.14
31483;BME280;18103;52.246;8.052;2023-03-03T04:56:19;101226.13;;;1.41;83.77
31483;BME280;18103;52.246;8.052;2023-03-03T04:58:44;101238.31;;;1.40;84.04
31483;BME280;18103;52.246;8.052;2023-03-03T05:01:13;101230.50;;;1.40;83.22
31483;BME280;18103;52.246;8.052;2023-03-03T05:03:39;101228.75;;;1.41;83.21
31483;BME280;18103;52.246;8.052;2023-03-03T05:06:05;101231.16;;;1.47;83.05
31483;BME280;18103;52.246;8.052;2023-03-03T05:08:30;101231.06;;;1.51;83.58
31483;BME280;18103;52.246;8.052;2023-03-03T05:10:56;101235.22;;;1.24;84.75
31483;BME280;18103;52.246;8.052;2023-03-03T05:13:24;101231.81;;;1.22;84.35
31483;BME280;18103;52.246;8.052;2023-03-03T05:15:52;101235.63;;;1.43;83.43
31483;BME280;18103;52.246;8.052;2023-03-03T05:18:20;101240.72;;;1.46;83.35
31483;BME280;18103;52.246;8.052;2023-03-03T05:20:45;101236.72;;;1.34;84.02
31483;BME280;18103;52.246;8.052;2023-03-03T05:23:11;101249.47;;;1.44;83.86
31483;BME280;18103;52.246;8.052;2023-03-03T05:25:36;101239.31;;;1.34;84.04
31483;BME280;18103;52.246;8.052;2023-03-03T05:28:02;101242.44;;;1.47;83.59
31483;BME280;18103;52.246;8.052;2023-03-03T05:30:28;101241.31;;;1.58;83.28
31483;BME280;18103;52.246;8.052;2023-03-03T05:32:54;101238.34;;;1.39;83.74
31483;BME280;18103;52.246;8.052;2023-03-03T05:35:19;101244.44;;;1.38;84.08
31483;BME280;18103;52.246;8.052;2023-03-03T05:37:45;101244.38;;;1.39;83.41
31483;BME280;18103;52.246;8.052;2023-03-03T05:40:13;101239.94;;;1.44;83.40
31483;BME280;18103;52.246;8.052;2023-03-03T05:42:39;101245.81;;;1.51;83.08
31483;BME280;18103;52.246;8.052;2023-03-03T05:45:05;101239.72;;;1.52;82.89
31483;BME280;18103;52.246;8.052;2023-03-03T05:47:30;101249.00;;;1.61;82.66
31483;BME280;18103;52.246;8.052;2023-03-03T05:49:55;101243.16;;;1.52;83.18
31483;BME280;18103;52.246;8.052;2023-03-03T05:52:21;101240.38;;;1.60;82.61
31483;BME280;18103;52.246;8.052;2023-03-03T05:54:48;101241.66;;;1.44;83.14
31483;BME280;18103;52.246;8.052;2023-03-03T05:57:13;101235.41;;;1.51;82.84
31483;BME280;18103;52.246;8.052;2023-03-03T05:59:39;101238.69;;;1.58;83.06
31483;BME280;18103;52.246;8.052;2023-03-03T06:02:04;101240.53;;;1.54;82.90
31483;BME280;18103;52.246;8.052;2023-03-03T06:04:30;101226.78;;;1.49;83.07
31483;BME280;18103;52.246;8.052;2023-03-03T06:06:55;101238.78;;;1.54;83.09
31483;BME280;18103;52.246;8.052;2023-03-03T06:09:21;101237.19;;;1.49;82.91
31483;BME280;18103;52.246;8.052;2023-03-03T06:11:46;101243.78;;;1.62;82.78
31483;BME280;18103;52.246;8.052;2023-03-03T06:14:12;101246.03;;;1.43;82.73
31483;BME280;18103;52.246;8.052;2023-03-03T06:16:37;101243.66;;;1.34;83.55
31483;BME280;18103;52.246;8.052;2023-03-03T06:19:03;101246.91;;;1.42;82.96
31483;BME280;18103;52.246;8.052;2023-03-03T06:21:29;101250.34;;;1.44;82.92
31483;BME280;18103;52.246;8.052;2023-03-03T06:23:54;101253.75;;;1.46;82.88
31483;BME280;18103;52.246;8.052;2023-03-03T06:26:19;101253.66;;;1.49;82.62
31483;BME280;18103;52.246;8.052;2023-03-03T06:28:45;101251.13;;;1.46;82.72
31483;BME280;18103;52.246;8.052;2023-03-03T06:31:10;101260.53;;;1.52;82.84
31483;BME280;18103;52.246;8.052;2023-03-03T06:33:36;101257.16;;;1.48;82.83
31483;BME280;18103;52.246;8.052;2023-03-03T06:36:02;101257.25;;;1.44;83.54
31483;BME280;18103;52.246;8.052;2023-03-03T06:38:28;101258.72;;;1.56;82.97
31483;BME280;18103;52.246;8.052;2023-03-03T06:40:53;101264.88;;;1.51;82.54
31483;BME280;18103;52.246;8.052;2023-03-03T06:43:18;101270.81;;;1.57;82.43
31483;BME280;18103;52.246;8.052;2023-03-03T06:45:45;101267.34;;;1.56;82.95
31483;BME280;18103;52.246;8.052;2023-03-03T06:48:10;101273.34;;;1.60;82.70
31483;BME280;18103;52.246;8.052;2023-03-03T06:50:35;101273.22;;;1.64;82.77
31483;BME280;18103;52.246;8.052;2023-03-03T06:53:11;101277.59;;;1.62;82.82
31483;BME280;18103;52.246;8.052;2023-03-03T06:55:36;101284.41;;;1.68;83.08
31483;BME280;18103;52.246;8.052;2023-03-03T06:58:08;101284.38;;;1.69;82.49
31483;BME280;18103;52.246;8.052;2023-03-03T07:00:36;101285.53;;;1.58;82.89
31483;BME280;18103;52.246;8.052;2023-03-03T07:03:10;101279.97;;;1.71;83.04
31483;BME280;18103;52.246;8.052;2023-03-03T07:05:37;101288.00;;;1.62;82.98
31483;BME280;18103;52.246;8.052;2023-03-03T07:08:09;101286.47;;;1.55;83.33
31483;BME280;18103;52.246;8.052;2023-03-03T07:10:37;101294.69;;;1.73;82.53
31483;BME280;18103;52.246;8.052;2023-03-03T07:13:26;101293.72;;;1.77;82.87
31483;BME280;18103;52.246;8.052;2023-03-03T07:15:53;101302.63;;;1.68;83.02
31483;BME280;18103;52.246;8.052;2023-03-03T07:18:50;101293.91;;;1.69;83.09
31483;BME280;18103;52.246;8.052;2023-03-03T07:21:20;101306.00;;;1.71;82.89
31483;BME280;18103;52.246;8.052;2023-03-03T07:23:51;101310.44;;;1.68;82.42
31483;BME280;18103;52.246;8.052;2023-03-03T07:26:25;101308.69;;;1.68;82.86
31483;BME280;18103;52.246;8.052;2023-03-03T07:29:03;101325.00;;;1.75;82.41
31483;BME280;18103;52.246;8.052;2023-03-03T07:31:39;101326.72;;;1.75;82.42
31483;BME280;18103;52.246;8.052;2023-03-03T07:34:19;101332.19;;;1.65;82.78
31483;BME280;18103;52.246;8.052;2023-03-03T07:36:45;101324.34;;;1.67;82.44
31483;BME280;18103;52.246;8.052;2023-03-03T07:39:25;101328.78;;;1.62;82.82
31483;BME280;18103;52.246;8.052;2023-03-03T07:41:57;101328.66;;;1.68;82.32
31483;BME280;18103;52.246;8.052;2023-03-03T07:44:45;101334.72;;;1.68;82.20
31483;BME280;18103;52.246;8.052;2023-03-03T07:47:29;101340.88;;;1.64;82.68
31483;BME280;18103;52.246;8.052;2023-03-03T07:49:57;101339.03;;;1.69;82.12
31483;BME280;18103;52.246;8.052;2023-03-03T07:52:30;101346.09;;;1.64;82.80
31483;BME280;18103;52.246;8.052;2023-03-03T07:55:01;101347.50;;;1.76;81.65
31483;BME280;18103;52.246;8.052;2023-03-03T07:57:43;101340.50;;;1.80;81.76
31483;BME280;18103;52.246;8.052;2023-03-03T08:02:44;101345.88;;;1.72;81.91
31483;BME280;18103;52.246;8.052;2023-03-03T08:05:34;101343.88;;;1.83;81.70
31483;BME280;18103;52.246;8.052;2023-03-03T08:08:32;101338.59;;;1.86;81.57
31483;BME280;18103;52.246;8.052;2023-03-03T08:11:01;101341.34;;;1.80;81.47
31483;BME280;18103;52.246;8.052;2023-03-03T08:16:01;101346.75;;;1.73;82.53
31483;BME280;18103;52.246;8.052;2023-03-03T08:18:49;101348.44;;;1.75;82.11
31483;BME280;18103;52.246;8.052;2023-03-03T08:23:46;101348.03;;;1.91;81.55
31483;BME280;18103;52.246;8.052;2023-03-03T08:26:13;101354.97;;;1.90;81.80
31483;BME280;18103;52.246;8.052;2023-03-03T08:28:39;101354.88;;;1.95;81.52
31483;BME280;18103;52.246;8.052;2023-03-03T08:31:04;101354.53;;;2.07;81.11
31483;BME280;18103;52.246;8.052;2023-03-03T08:33:30;101344.72;;;1.84;81.90
31483;BME280;18103;52.246;8.052;2023-03-03T08:35:55;101354.22;;;1.86;81.63
31483;BME280;18103;52.246;8.052;2023-03-03T08:38:21;101346.00;;;2.02;80.85
31483;BME280;18103;52.246;8.052;2023-03-03T08:40:47;101347.00;;;1.96;80.86
31483;BME280;18103;52.246;8.052;2023-03-03T08:43:13;101343.09;;;1.80;81.42
31483;BME280;18103;52.246;8.052;2023-03-03T08:45:45;101354.72;;;1.99;81.08
31483;BME280;18103;52.246;8.052;2023-03-03T08:48:11;101350.94;;;2.11;80.76
31483;BME280;18103;52.246;8.052;2023-03-03T08:50:37;101353.63;;;2.08;81.19
31483;BME280;18103;52.246;8.052;2023-03-03T08:53:03;101348.88;;;2.24;80.26
31483;BME280;18103;52.246;8.052;2023-03-03T08:55:28;101353.34;;;2.19;80.62
31483;BME280;18103;52.246;8.052;2023-03-03T08:57:53;101352.78;;;2.08;81.64
31483;BME280;18103;52.246;8.052;2023-03-03T09:00:19;101347.72;;;2.01;82.00
31483;BME280;18103;52.246;8.052;2023-03-03T09:02:45;101349.91;;;2.17;81.50
31483;BME280;18103;52.246;8.052;2023-03-03T09:05:11;101349.03;;;2.18;81.30
31483;BME280;18103;52.246;8.052;2023-03-03T09:07:37;101360.19;;;2.23;80.71
31483;BME280;18103;52.246;8.052;2023-03-03T09:10:04;101353.84;;;2.32;80.18
31483;BME280;18103;52.246;8.052;2023-03-03T09:12:34;101355.38;;;2.39;80.55
31483;BME280;18103;52.246;8.052;2023-03-03T09:15:12;101359.16;;;2.29;80.98
31483;BME280;18103;52.246;8.052;2023-03-03T09:17:39;101366.69;;;2.39;80.01
31483;BME280;18103;52.246;8.052;2023-03-03T09:20:26;101369.66;;;2.26;80.95
31483;BME280;18103;52.246;8.052;2023-03-03T09:22:52;101369.94;;;2.15;81.83
31483;BME280;18103;52.246;8.052;2023-03-03T09:25:30;101371.41;;;2.25;81.22
31483;BME280;18103;52.246;8.052;2023-03-03T09:27:56;101369.34;;;2.38;81.46
31483;BME280;18103;52.246;8.052;2023-03-03T09:32:47;101373.38;;;2.48;81.10
31483;BME280;18103;52.246;8.052;2023-03-03T09:37:55;101381.16;;;2.50;80.61
31483;BME280;18103;52.246;8.052;2023-03-03T09:43:03;101378.50;;;2.51;79.94
31483;BME280;18103;52.246;8.052;2023-03-03T09:46:12;101385.28;;;2.57;80.36
31483;BME280;18103;52.246;8.052;2023-03-03T09:51:52;101386.31;;;2.51;80.29
31483;BME280;18103;52.246;8.052;2023-03-03T09:57:13;101386.91;;;2.61;80.02
31483;BME280;18103;52.246;8.052;2023-03-03T10:03:01;101400.13;;;2.85;79.78
31483;BME280;18103;52.246;8.052;2023-03-03T10:05:42;101393.44;;;2.76;80.46
31483;BME280;18103;52.246;8.052;2023-03-03T10:11:57;101389.53;;;2.91;79.56
31483;BME280;18103;52.246;8.052;2023-03-03T10:19:26;101382.00;;;3.10;79.23
31483;BME280;18103;52.246;8.052;2023-03-03T10:22:12;101386.13;;;3.17;79.14
31483;BME280;18103;52.246;8.052;2023-03-03T10:27:49;101387.84;;;3.18;79.28
31483;BME280;18103;52.246;8.052;2023-03-03T10:30:36;101393.91;;;3.19;78.99
31483;BME280;18103;52.246;8.052;2023-03-03T10:42:01;101396.00;;;3.07;79.27
31483;BME280;18103;52.246;8.052;2023-03-03T10:50:35;101397.22;;;3.52;78.26
31483;BME280;18103;52.246;8.052;2023-03-03T11:10:12;101384.34;;;4.00;77.15
31483;BME280;18103;52.246;8.052;2023-03-03T11:12:47;101383.63;;;3.96;78.14
31483;BME280;18103;52.246;8.052;2023-03-03T11:15:39;101382.44;;;4.05;77.26
31483;BME280;18103;52.246;8.052;2023-03-03T11:23:51;101381.84;;;4.22;77.02
31483;BME280;18103;52.246;8.052;2023-03-03T11:29:02;101383.88;;;4.14;76.35
31483;BME280;18103;52.246;8.052;2023-03-03T11:31:47;101376.38;;;4.30;76.58
31483;BME280;18103;52.246;8.052;2023-03-03T11:37:15;101371.09;;;4.31;76.25
31483;BME280;18103;52.246;8.052;2023-03-03T11:39:43;101378.44;;;4.45;74.82
31483;BME280;18103;52.246;8.052;2023-03-03T11:42:46;101375.75;;;4.47;75.92
31483;BME280;18103;52.246;8.052;2023-03-03T11:45:42;101378.38;;;4.47;75.94
31483;BME280;18103;52.246;8.052;2023-03-03T11:48:14;101374.03;;;4.45;75.00
31483;BME280;18103;52.246;8.052;2023-03-03T11:50:57;101367.97;;;4.45;75.58
31483;BME280;18103;52.246;8.052;2023-03-03T12:01:36;101367.56;;;4.56;74.51
31483;BME280;18103;52.246;8.052;2023-03-03T12:04:11;101362.56;;;4.50;74.55
31483;BME280;18103;52.246;8.052;2023-03-03T12:09:41;101352.88;;;4.75;74.51
31483;BME280;18103;52.246;8.052;2023-03-03T12:12:20;101350.44;;;4.94;73.52
31483;BME280;18103;52.246;8.052;2023-03-03T12:20:30;101352.06;;;5.41;73.69
31483;BME280;18103;52.246;8.052;2023-03-03T12:23:18;101346.78;;;5.63;73.46
31483;BME280;18103;52.246;8.052;2023-03-03T12:25:46;101338.47;;;5.54;71.65
31483;BME280;18103;52.246;8.052;2023-03-03T12:28:27;101339.75;;;5.65;72.50
31483;BME280;18103;52.246;8.052;2023-03-03T12:38:56;101337.00;;;5.69;71.06
31483;BME280;18103;52.246;8.052;2023-03-03T12:49:12;101332.19;;;6.01;70.60
31483;BME280;18103;52.246;8.052;2023-03-03T12:57:00;101319.72;;;6.06;70.30
31483;BME280;18103;52.246;8.052;2023-03-03T13:10:22;101307.97;;;5.53;71.21
31483;BME280;18103;52.246;8.052;2023-03-03T13:13:17;101303.44;;;5.56;71.18
31483;BME280;18103;52.246;8.052;2023-03-03T13:15:59;101299.50;;;5.66;71.53
31483;BME280;18103;52.246;8.052;2023-03-03T13:18:59;101293.44;;;5.66;71.24
31483;BME280;18103;52.246;8.052;2023-03-03T13:21:41;101300.44;;;5.65;71.97
31483;BME280;18103;52.246;8.052;2023-03-03T13:24:17;101300.88;;;5.96;72.15
31483;BME280;18103;52.246;8.052;2023-03-03T13:29:29;101298.75;;;5.64;71.86
31483;BME280;18103;52.246;8.052;2023-03-03T13:32:21;101294.66;;;5.37;72.21
31483;BME280;18103;52.246;8.052;2023-03-03T13:39:55;101298.03;;;6.02;71.17
31483;BME280;18103;52.246;8.052;2023-03-03T13:42:28;101296.06;;;6.07;71.02
31483;BME280;18103;52.246;8.052;2023-03-03T13:44:58;101291.19;;;6.38;70.78
31483;BME280;18103;52.246;8.052;2023-03-03T13:47:37;101288.72;;;6.34;70.31
31483;BME280;18103;52.246;8.052;2023-03-03T13:50:21;101283.44;;;6.55;69.29
31483;BME280;18103;52.246;8.052;2023-03-03T13:58:14;101280.31;;;6.66;69.39
31483;BME280;18103;52.246;8.052;2023-03-03T14:06:13;101274.31;;;7.18;68.56
31483;BME280;18103;52.246;8.052;2023-03-03T14:08:44;101267.13;;;7.22;68.38
31483;BME280;18103;52.246;8.052;2023-03-03T14:11:28;101256.78;;;7.18;67.58
31483;BME280;18103;52.246;8.052;2023-03-03T14:14:12;101256.69;;;7.20;67.35
31483;BME280;18103;52.246;8.052;2023-03-03T14:17:03;101255.47;;;7.10;67.54
31483;BME280;18103;52.246;8.052;2023-03-03T14:22:55;101246.34;;;7.52;66.26
31483;BME280;18103;52.246;8.052;2023-03-03T14:25:22;101238.50;;;7.34;66.27
31483;BME280;18103;52.246;8.052;2023-03-03T14:28:09;101233.94;;;7.21;66.71
31483;BME280;18103;52.246;8.052;2023-03-03T14:30:40;101237.94;;;7.63;66.86
31483;BME280;18103;52.246;8.052;2023-03-03T14:35:37;101232.03;;;7.75;64.96
31483;BME280;18103;52.246;8.052;2023-03-03T14:38:37;101231.66;;;7.65;65.49
31483;BME280;18103;52.246;8.052;2023-03-03T14:43:39;101219.63;;;7.61;66.15
31483;BME280;18103;52.246;8.052;2023-03-03T14:46:37;101221.72;;;7.54;66.26
31483;BME280;18103;52.246;8.052;2023-03-03T14:49:30;101216.25;;;7.24;67.37
31483;BME280;18103;52.246;8.052;2023-03-03T14:52:10;101215.28;;;7.60;66.02
31483;BME280;18103;52.246;8.052;2023-03-03T14:54:47;101216.16;;;7.43;66.72
31483;BME280;18103;52.246;8.052;2023-03-03T15:05:30;101201.09;;;7.12;67.12
31483;BME280;18103;52.246;8.052;2023-03-03T15:08:07;101199.41;;;7.11;67.99
31483;BME280;18103;52.246;8.052;2023-03-03T15:10:41;101196.38;;;7.18;67.83
31483;BME280;18103;52.246;8.052;2023-03-03T15:16:01;101184.09;;;7.19;68.16
31483;BME280;18103;52.246;8.052;2023-03-03T15:18:29;101185.66;;;7.23;67.97
31483;BME280;18103;52.246;8.052;2023-03-03T15:21:03;101184.13;;;7.01;68.76
31483;BME280;18103;52.246;8.052;2023-03-03T15:31:41;101174.38;;;7.21;67.82
31483;BME280;18103;52.246;8.052;2023-03-03T15:42:26;101161.50;;;6.99;68.42
31483;BME280;18103;52.246;8.052;2023-03-03T15:45:01;101164.97;;;6.99;68.44
31483;BME280;18103;52.246;8.052;2023-03-03T15:55:31;101155.00;;;7.06;68.38
31483;BME280;18103;52.246;8.052;2023-03-03T16:03:16;101148.91;;;6.71;69.40
31483;BME280;18103;52.246;8.052;2023-03-03T16:05:57;101155.91;;;6.70;69.59
31483;BME280;18103;52.246;8.052;2023-03-03T16:08:44;101154.63;;;6.79;69.59
31483;BME280;18103;52.246;8.052;2023-03-03T16:11:49;101154.97;;;6.54;70.08
31483;BME280;18103;52.246;8.052;2023-03-03T16:14:42;101153.78;;;6.42;70.36
31483;BME280;18103;52.246;8.052;2023-03-03T16:17:25;101153.09;;;6.38;70.52
31483;BME280;18103;52.246;8.052;2023-03-03T16:25:58;101165.66;;;6.31;71.13
31483;BME280;18103;52.246;8.052;2023-03-03T16:31:23;101158.78;;;6.10;71.67
31483;BME280;18103;52.246;8.052;2023-03-03T16:34:13;101158.44;;;6.18;71.57
31483;BME280;18103;52.246;8.052;2023-03-03T16:37:10;101154.56;;;6.07;71.76
31483;BME280;18103;52.246;8.052;2023-03-03T16:39:39;101166.94;;;6.04;71.71
31483;BME280;18103;52.246;8.052;2023-03-03T16:42:26;101163.53;;;6.02;71.68
31483;BME280;18103;52.246;8.052;2023-03-03T16:50:22;101160.25;;;6.34;70.94
31483;BME280;18103;52.246;8.052;2023-03-03T16:53:14;101161.09;;;6.35;70.87
31483;BME280;18103;52.246;8.052;2023-03-03T16:56:05;101164.72;;;6.13;70.39
31483;BME280;18103;52.246;8.052;2023-03-03T17:01:33;101169.25;;;5.91;69.49
31483;BME280;18103;52.246;8.052;2023-03-03T17:04:14;101175.47;;;5.88;69.13
31483;BME280;18103;52.246;8.052;2023-03-03T17:06:54;101171.00;;;5.90;68.53
31483;BME280;18103;52.246;8.052;2023-03-03T17:09:48;101175.53;;;5.87;68.65
31483;BME280;18103;52.246;8.052;2023-03-03T17:12:33;101179.22;;;5.82;68.13